Time;durP1;ratioP1;P1;durP2;ratioP2;P2;SDS_P1;SDS_P2;PMS_P1;PMS_P2;Temp;Humidity;BMP_temperature;BMP_pressure;BME280_temperature;BME280_humidity;BME280_pressure;Samples;Min_cycle;Max_cycle;Signal;HPM_P1;HPM_P2
2022/04/08 00:04:07;;;;;;;1999.90;999.90;;;;;;;8.97;68.75;98141.03;15452046;28;20098;-62
2022/04/08 00:11:39;;;;;;;1999.90;999.90;;;;;;;8.87;68.51;98130.59;15471890;28;20074;-64
2022/04/08 00:19:13;;;;;;;1999.90;999.90;;;;;;;9.10;67.58;98130.38;15482072;28;20049;-65
2022/04/08 00:26:46;;;;;;;1999.90;999.90;;;;;;;8.84;68.10;98161.94;15477069;28;20038;-65
2022/04/08 00:34:20;;;;;;;;;;;;;;;9.09;66.42;98165.75;15433484;28;20047;-62
2022/04/08 00:41:52;;;;;;;738.85;433.33;;;;;;;8.88;67.07;98183.03;15468053;28;20358;-63
2022/04/08 00:49:25;;;;;;;1999.90;999.90;;;;;;;8.78;68.58;98230.22;15474257;28;20105;-65
2022/04/08 00:56:58;;;;;;;624.13;339.27;;;;;;;8.52;70.68;98239.44;15489620;28;20062;-64
2022/04/08 01:04:31;;;;;;;1999.90;999.90;;;;;;;8.77;69.83;98267.53;15487293;28;20090;-61
2022/04/08 01:12:04;;;;;;;1999.90;999.90;;;;;;;8.72;69.45;98292.88;15479682;28;20042;-64
2022/04/08 01:19:38;;;;;;;1371.83;699.00;;;;;;;8.88;67.92;98312.94;15492762;28;20564;-63
2022/04/08 01:27:12;;;;;;;1999.90;999.90;;;;;;;8.68;68.37;98324.22;15483587;28;20510;-63
2022/04/08 01:34:45;;;;;;;1999.90;999.90;;;;;;;8.73;67.83;98345.31;15447089;28;20106;-63
2022/04/08 01:42:23;;;;;;;79.80;40.45;;;;;;;8.44;68.44;98358.06;15437888;28;20050;-63
2022/04/08 01:49:55;;;;;;;1999.90;999.90;;;;;;;8.51;67.91;98383.16;15446418;28;20054;-62
2022/04/08 01:57:29;;;;;;;1999.90;999.90;;;;;;;8.23;67.95;98382.69;15434375;28;20129;-62
2022/04/08 02:05:02;;;;;;;1999.90;999.90;;;;;;;8.63;66.56;98384.91;15436992;28;20039;-64
2022/04/08 02:12:36;;;;;;;1999.90;999.90;;;;;;;8.62;66.31;98431.34;15450864;28;20155;-62
2022/04/08 02:20:09;;;;;;;;;;;;;;;8.71;64.85;98427.50;15466419;28;20559;-63
2022/04/08 02:27:43;;;;;;;1999.90;999.90;;;;;;;8.81;65.15;98449.09;15485566;28;19960;-61
2022/04/08 02:35:15;;;;;;;1520.93;761.78;;;;;;;8.55;66.56;98455.50;15477871;28;20046;-63
2022/04/08 02:42:49;;;;;;;1999.90;999.90;;;;;;;8.73;66.45;98467.66;15464838;28;20042;-62
2022/04/08 02:50:21;;;;;;;1999.90;999.90;;;;;;;8.77;65.91;98484.41;15456062;28;20047;-63
2022/04/08 02:57:54;;;;;;;1999.90;999.90;;;;;;;8.83;66.17;98483.69;15476161;28;20109;-61
2022/04/08 03:05:27;;;;;;;1999.90;999.90;;;;;;;8.88;66.21;98510.38;15468939;28;20094;-61
2022/04/08 03:13:00;;;;;;;1999.90;999.90;;;;;;;8.70;70.00;98523.22;15450964;28;20389;-64
2022/04/08 03:20:32;;;;;;;;;;;;;;;8.53;70.47;98510.63;15440356;28;20050;-64
2022/04/08 03:28:06;;;;;;;356.17;324.23;;;;;;;8.13;75.65;98539.72;15478772;28;19929;-61
2022/04/08 03:35:38;;;;;;;459.02;408.92;;;;;;;7.84;76.13;98568.91;15479449;28;20089;-64
2022/04/08 03:43:12;;;;;;;253.35;228.55;;;;;;;8.13;76.34;98592.50;15475664;28;20134;-62
2022/04/08 03:50:44;;;;;;;511.05;368.45;;;;;;;8.08;76.50;98592.78;15482077;28;20057;-62
2022/04/08 03:58:18;;;;;;;1090.88;581.17;;;;;;;8.06;76.65;98607.03;15492244;28;20050;-63
2022/04/08 04:05:50;;;;;;;232.52;177.65;;;;;;;8.15;75.05;98609.59;15469564;28;20046;-63
2022/04/08 04:13:27;;;;;;;207.57;166.85;;;;;;;8.37;74.61;98622.72;15493917;28;20073;-62
2022/04/08 04:20:59;;;;;;;602.58;308.75;;;;;;;7.88;76.21;98697.50;15491159;23;20050;-73
2022/04/08 04:28:33;;;;;;;1999.90;999.90;;;;;;;7.83;73.86;98711.69;15498460;28;20046;-73
2022/04/08 04:36:05;;;;;;;1999.90;999.90;;;;;;;7.55;73.02;98736.81;15496730;28;20197;-73
2022/04/08 04:43:39;;;;;;;1999.90;999.90;;;;;;;7.61;72.88;98759.53;15497961;28;20061;-74
2022/04/08 04:51:13;;;;;;;1999.90;999.90;;;;;;;7.82;71.72;98779.47;15481667;28;20046;-73
2022/04/08 04:58:47;;;;;;;1052.43;526.20;;;;;;;7.71;71.98;98803.38;15500627;28;20078;-73
2022/04/08 05:06:20;;;;;;;1999.90;999.90;;;;;;;7.95;71.36;98817.06;15495406;28;20046;-73
2022/04/08 05:13:54;;;;;;;1999.90;999.90;;;;;;;7.74;72.84;98831.25;15559373;28;20116;-74
2022/04/08 05:21:29;;;;;;;1999.90;999.90;;;;;;;7.71;72.44;98839.47;15558623;28;20049;-75
2022/04/08 05:29:02;;;;;;;1999.90;999.90;;;;;;;8.16;71.42;98880.66;15540958;28;20050;-74
2022/04/08 05:36:34;;;;;;;1999.90;999.90;;;;;;;7.88;71.87;98883.53;15558226;28;20042;-73
2022/04/08 05:44:08;;;;;;;1999.90;999.90;;;;;;;8.20;70.79;98905.72;15511342;28;20105;-72
2022/04/08 05:51:41;;;;;;;1524.82;762.95;;;;;;;7.71;71.17;98918.03;15479698;28;20046;-72
2022/04/08 05:59:14;;;;;;;1999.90;999.90;;;;;;;8.31;70.14;98917.91;15496239;28;20054;-72
2022/04/08 06:06:46;;;;;;;167.60;80.85;;;;;;;7.70;71.58;98921.94;15495786;28;20062;-74
2022/04/08 06:14:21;;;;;;;1021.60;510.50;;;;;;;7.97;69.17;98942.47;15494978;28;20050;-73
2022/04/08 06:21:54;;;;;;;630.15;312.17;;;;;;;8.08;68.47;98949.09;15494791;28;20061;-73
2022/04/08 06:29:28;;;;;;;1999.90;999.90;;;;;;;8.57;69.25;98954.28;15494144;28;20069;-72
2022/04/08 06:37:00;;;;;;;1999.90;999.90;;;;;;;8.25;70.05;98972.94;15476824;28;20042;-73
2022/04/08 06:44:35;;;;;;;1999.90;999.90;;;;;;;8.47;69.27;98979.06;15491498;28;20046;-73
2022/04/08 06:52:07;;;;;;;1036.55;516.58;;;;;;;9.24;66.47;98982.75;15512509;28;20457;-72
2022/04/08 06:59:42;;;;;;;305.35;178.63;;;;;;;8.55;68.37;99023.34;15500398;28;20043;-73
2022/04/08 07:07:14;;;;;;;343.75;253.80;;;;;;;7.45;76.15;99037.06;15539430;28;20415;-72
2022/04/08 07:14:47;;;;;;;1524.45;771.42;;;;;;;6.23;75.80;99082.34;15535191;28;20104;-71
2022/04/08 07:22:20;;;;;;;1999.90;999.90;;;;;;;6.14;75.84;99089.94;15505626;28;20057;-72
2022/04/08 07:29:53;;;;;;;1147.45;625.55;;;;;;;6.39;76.55;99104.66;15457521;28;20588;-72
2022/04/08 07:37:29;;;;;;;1999.90;999.90;;;;;;;7.27;74.87;99108.66;15475213;28;20045;-72
2022/04/08 07:45:04;;;;;;;1999.90;999.90;;;;;;;7.11;73.45;99107.78;15492784;28;20077;-73
2022/04/08 07:52:37;;;;;;;1999.90;999.90;;;;;;;7.88;69.75;99118.78;15484520;28;20039;-73
2022/04/08 08:00:12;;;;;;;1999.90;999.90;;;;;;;9.86;64.46;99135.19;15519454;28;20133;-72
2022/04/08 08:07:50;;;;;;;1999.90;999.90;;;;;;;10.83;61.35;99142.22;15536981;28;20053;-72
2022/04/08 08:15:25;;;;;;;1999.90;999.90;;;;;;;11.95;57.87;99151.09;15550215;28;21007;-72
2022/04/08 08:22:59;;;;;;;1999.90;999.90;;;;;;;12.65;56.33;99151.09;15541078;28;20049;-73
2022/04/08 08:30:34;;;;;;;1999.90;999.90;;;;;;;12.82;52.35;99188.00;15582557;28;20501;-71
2022/04/08 08:38:07;;;;;;;1999.90;999.90;;;;;;;12.20;52.87;99176.56;15608025;28;20107;-73
2022/04/08 08:45:43;;;;;;;1999.90;999.90;;;;;;;12.49;51.49;99186.88;15586469;28;20053;-73
2022/04/08 08:53:18;;;;;;;1999.90;999.90;;;;;;;12.24;50.66;99189.41;15543593;28;20383;-74
2022/04/08 09:00:52;;;;;;;1999.90;999.90;;;;;;;11.46;50.03;99208.66;15601467;23;20449;-56
2022/04/08 09:08:33;;;;;;;1999.90;999.90;;;;;;;10.63;52.46;99207.63;15538583;28;20054;-57
2022/04/08 09:16:07;;;;;;;1999.90;999.90;;;;;;;12.12;48.85;99214.81;15566453;23;20115;-62
2022/04/08 09:23:40;;;;;;;;;;;;;;;12.49;47.70;99214.03;15553253;28;20250;-57
2022/04/08 09:31:19;;;;;;;1999.90;999.90;;;;;;;11.01;49.04;99231.03;15536083;28;20419;-61
2022/04/08 09:38:51;;;;;;;1999.90;999.90;;;;;;;11.41;50.48;99214.56;15605981;28;20041;-63
2022/04/08 09:46:29;;;;;;;1999.90;999.90;;;;;;;12.85;48.26;99215.25;15613615;28;20060;-62
2022/04/08 09:54:02;;;;;;;1999.90;999.90;;;;;;;12.29;48.51;99221.78;15550697;28;20098;-59
2022/04/08 10:01:37;;;;;;;1999.90;999.90;;;;;;;14.13;43.67;99221.84;15553376;28;20042;-58
2022/04/08 10:09:14;;;;;;;1999.90;999.90;;;;;;;14.35;42.81;99222.75;15576517;28;20041;-59
2022/04/08 10:16:52;;;;;;;1999.90;999.90;;;;;;;14.69;40.74;99212.06;15613519;28;20072;-61
2022/04/08 10:24:26;;;;;;;1999.90;999.90;;;;;;;12.84;42.55;99206.06;15493251;28;20501;-58
2022/04/08 10:32:03;;;;;;;1999.90;999.90;;;;;;;12.35;43.75;99195.13;15490328;28;20042;-60
2022/04/08 10:39:35;;;;;;;1999.90;999.90;;;;;;;14.94;40.54;99201.69;15581646;28;20053;-58
2022/04/08 10:47:14;;;;;;;1999.90;999.90;;;;;;;13.74;43.02;99191.56;15590920;28;20086;-59
2022/04/08 10:54:46;;;;;;;1999.90;999.90;;;;;;;12.51;44.49;99181.72;15590071;28;20510;-63
2022/04/08 11:02:20;;;;;;;1999.90;999.90;;;;;;;12.26;45.08;99187.00;15589575;28;20068;-60
2022/04/08 11:09:55;;;;;;;1999.90;999.90;;;;;;;11.27;46.67;99195.59;15593052;28;20149;-61
2022/04/08 11:17:35;;;;;;;1999.90;999.90;;;;;;;11.07;47.27;99180.09;15544542;28;20069;-64
2022/04/08 11:25:09;;;;;;;1999.90;999.90;;;;;;;11.82;45.45;99172.88;15528569;28;20108;-61
2022/04/08 11:32:43;;;;;;;1999.90;999.90;;;;;;;12.28;45.13;99179.03;15547279;28;20070;-63
2022/04/08 11:40:16;;;;;;;;;;;;;;;13.53;41.69;99169.81;15530804;28;20050;-59
2022/04/08 11:47:50;;;;;;;1999.90;999.90;;;;;;;12.91;43.50;99183.72;15547458;28;19928;-60
2022/04/08 11:55:23;;;;;;;;;;;;;;;12.25;44.47;99170.63;15546334;28;20124;-63
2022/04/08 12:02:58;;;;;;;1999.90;999.90;;;;;;;11.70;46.31;99173.09;15558610;28;19987;-60
2022/04/08 12:10:31;;;;;;;1999.90;999.90;;;;;;;11.51;50.42;99166.44;15562327;28;20109;-59
2022/04/08 12:18:07;;;;;;;1999.90;999.90;;;;;;;10.95;49.28;99158.78;15619256;28;20441;-61
2022/04/08 12:25:41;;;;;;;1999.90;999.90;;;;;;;10.97;50.11;99148.03;15619460;28;20498;-60
2022/04/08 12:33:16;;;;;;;1999.90;999.90;;;;;;;12.51;47.16;99148.16;15617193;28;20112;-61
2022/04/08 12:40:49;;;;;;;1999.90;999.90;;;;;;;12.70;45.34;99144.31;15601040;28;20506;-62
2022/04/08 12:48:24;;;;;;;1999.90;999.90;;;;;;;12.67;44.17;99128.31;15622836;28;20038;-57
2022/04/08 12:55:57;;;;;;;;;;;;;;;13.09;43.13;99129.88;15615924;28;20038;-61
2022/04/08 13:03:31;;;;;;;1999.90;999.90;;;;;;;13.01;42.01;99113.00;15600523;28;20016;-62
2022/04/08 13:11:04;;;;;;;1999.90;999.90;;;;;;;12.85;42.55;99117.28;15594213;28;20081;-62
2022/04/08 13:18:38;;;;;;;1999.90;999.90;;;;;;;11.93;42.85;99115.13;15556349;28;20074;-60
2022/04/08 13:26:10;;;;;;;1999.90;999.90;;;;;;;11.52;43.75;99120.56;15567692;28;20034;-63
2022/04/08 13:33:43;;;;;;;1999.90;999.90;;;;;;;11.50;44.46;99100.59;15584186;28;20046;-63
2022/04/08 13:41:16;;;;;;;1999.90;999.90;;;;;;;11.39;44.69;99096.03;15611181;28;20038;-61
2022/04/08 13:48:50;;;;;;;1999.90;999.90;;;;;;;11.96;44.14;99082.81;15536079;28;20247;-63
2022/04/08 13:56:22;;;;;;;1999.90;999.90;;;;;;;12.45;43.79;99074.16;15539310;28;20041;-62
2022/04/08 14:03:56;;;;;;;1999.90;999.90;;;;;;;12.26;43.60;99063.16;15608641;28;20103;-62
2022/04/08 14:11:28;;;;;;;1999.90;999.90;;;;;;;12.44;44.25;99069.75;15595800;28;20091;-63
2022/04/08 14:19:02;;;;;;;1999.90;999.90;;;;;;;12.09;44.32;99073.81;15613141;28;20077;-62
2022/04/08 14:26:34;;;;;;;1999.90;999.90;;;;;;;11.80;45.11;99067.06;15595652;28;20194;-59
2022/04/08 14:34:08;;;;;;;1999.90;999.90;;;;;;;11.95;44.69;99059.66;15592520;28;20116;-60
2022/04/08 14:41:42;;;;;;;1999.90;999.90;;;;;;;12.09;44.81;99062.63;15550062;28;20049;-60
2022/04/08 14:49:15;;;;;;;1999.90;999.90;;;;;;;12.05;43.51;99058.97;15532180;28;20502;-62
2022/04/08 14:56:50;;;;;;;;;;;;;;;12.26;43.76;99066.78;15532833;28;20076;-63
2022/04/08 15:04:23;;;;;;;1999.90;999.90;;;;;;;12.00;43.55;99072.50;15535017;28;20366;-62
2022/04/08 15:11:55;;;;;;;1999.90;999.90;;;;;;;11.79;43.64;99059.88;15551404;28;20069;-63
2022/04/08 15:19:29;;;;;;;1999.90;999.90;;;;;;;11.68;43.54;99081.28;15574460;23;20148;-64
2022/04/08 15:27:02;;;;;;;1999.90;999.90;;;;;;;11.66;44.26;99068.84;15585039;28;20429;-64
2022/04/08 15:34:36;;;;;;;1999.90;999.90;;;;;;;11.99;43.11;99068.91;15577136;28;20116;-63
2022/04/08 15:42:09;;;;;;;1999.90;999.90;;;;;;;11.65;43.68;99051.28;15538775;28;20041;-64
2022/04/08 15:49:43;;;;;;;1999.90;999.90;;;;;;;12.10;43.83;99063.41;15579080;28;20548;-63
2022/04/08 15:57:15;;;;;;;1999.90;999.90;;;;;;;12.11;43.97;99062.22;15539243;28;20046;-63
2022/04/08 16:04:49;;;;;;;1999.90;999.90;;;;;;;11.57;45.05;99067.16;15522643;28;20054;-63
2022/04/08 16:12:21;;;;;;;1999.90;999.90;;;;;;;11.94;43.26;99085.19;15534817;28;20070;-64
2022/04/08 16:19:55;;;;;;;1999.90;999.90;;;;;;;11.85;43.65;99071.50;15561761;28;20056;-62
2022/04/08 16:27:27;;;;;;;1999.90;999.90;;;;;;;11.54;44.05;99084.66;15571468;28;20495;-65
2022/04/08 16:35:01;;;;;;;1999.90;999.90;;;;;;;11.47;43.82;99092.16;15569399;28;20057;-65
2022/04/08 16:42:33;;;;;;;1999.90;999.90;;;;;;;11.49;43.95;99089.78;15548684;28;20050;-65
2022/04/08 16:50:08;;;;;;;1999.90;999.90;;;;;;;11.37;43.73;99079.66;15565252;28;20045;-63
2022/04/08 16:57:40;;;;;;;1999.90;999.90;;;;;;;11.46;43.92;99070.97;15545080;28;20053;-66
2022/04/08 17:05:13;;;;;;;1999.90;999.90;;;;;;;11.58;44.01;99067.97;15561450;28;20105;-63
2022/04/08 17:12:46;;;;;;;1999.90;999.90;;;;;;;11.37;44.38;99051.75;15550824;28;20136;-63
2022/04/08 17:20:19;;;;;;;1999.90;999.90;;;;;;;11.27;45.13;99069.94;15554622;28;20038;-66
2022/04/08 17:27:51;;;;;;;1999.90;999.90;;;;;;;11.34;45.45;99063.66;15564269;28;20046;-61
2022/04/08 17:35:25;;;;;;;1999.90;999.90;;;;;;;11.32;45.51;99054.84;15554854;28;20038;-63
2022/04/08 17:42:57;;;;;;;;;;;;;;;10.93;46.02;99048.69;15541354;28;20046;-63
2022/04/08 17:50:32;;;;;;;1999.90;999.90;;;;;;;10.56;46.23;99066.06;15556810;28;19995;-65
2022/04/08 17:58:05;;;;;;;1999.90;999.90;;;;;;;10.57;46.51;99078.81;15540059;28;20495;-62
2022/04/08 18:05:39;;;;;;;1999.90;999.90;;;;;;;10.49;46.99;99068.72;15536038;28;20046;-64
2022/04/08 18:13:11;;;;;;;1999.90;999.90;;;;;;;10.28;48.08;99076.72;15534323;28;20040;-62
2022/04/08 18:20:45;;;;;;;1999.90;999.90;;;;;;;10.09;49.67;99086.69;15556655;28;20046;-63
2022/04/08 18:28:17;;;;;;;1999.90;999.90;;;;;;;9.93;49.15;99091.56;15564699;28;20069;-63
2022/04/08 18:35:51;;;;;;;1999.90;999.90;;;;;;;9.86;48.67;99085.03;15545642;28;20046;-63
2022/04/08 18:43:23;;;;;;;1999.90;999.90;;;;;;;9.67;49.28;99100.56;15536541;28;20096;-60
2022/04/08 18:50:59;;;;;;;1999.90;999.90;;;;;;;9.51;50.17;99108.19;15541513;28;20049;-65
2022/04/08 18:58:31;;;;;;;1999.90;999.90;;;;;;;9.34;50.03;99111.38;15529307;28;20440;-60
2022/04/08 19:06:05;;;;;;;1999.90;999.90;;;;;;;9.15;50.47;99107.38;15537904;28;20046;-61
2022/04/08 19:13:38;;;;;;;1999.90;999.90;;;;;;;9.08;51.02;99112.78;15545567;28;20049;-62
2022/04/08 19:21:12;;;;;;;1999.90;999.90;;;;;;;8.98;52.10;99105.00;15529725;28;20062;-60
2022/04/08 19:28:44;;;;;;;1999.90;999.90;;;;;;;8.26;53.50;99116.28;15554795;28;20109;-60
2022/04/08 19:36:17;;;;;;;1999.90;999.90;;;;;;;8.22;54.60;99120.91;15553218;28;20235;-62
2022/04/08 19:43:50;;;;;;;1999.90;999.90;;;;;;;8.19;56.62;99109.72;15531371;28;20140;-63
2022/04/08 19:51:24;;;;;;;1999.90;999.90;;;;;;;8.39;57.25;99100.34;15534724;28;20061;-65
2022/04/08 19:58:57;;;;;;;1999.90;999.90;;;;;;;8.16;59.10;99102.91;15501199;28;20458;-62
2022/04/08 20:06:31;;;;;;;1999.90;999.90;;;;;;;8.02;60.75;99103.34;15541738;28;20156;-61
2022/04/08 20:14:03;;;;;;;1999.90;999.90;;;;;;;8.25;60.73;99095.22;15501036;28;20050;-62
2022/04/08 20:21:37;;;;;;;1999.90;999.90;;;;;;;8.17;60.64;99096.19;15527794;28;20050;-61
2022/04/08 20:29:10;;;;;;;1999.90;999.90;;;;;;;8.01;61.34;99090.56;15525931;28;20495;-63
2022/04/08 20:36:43;;;;;;;1999.90;999.90;;;;;;;7.91;61.97;99077.19;15524052;28;20050;-63
2022/04/08 20:44:16;;;;;;;;;;;;;;;7.92;62.71;99076.06;15557458;28;20042;-63
2022/04/08 20:51:50;;;;;;;1999.90;999.90;;;;;;;7.71;63.02;99072.66;15544339;28;19922;-62
2022/04/08 20:59:23;;;;;;;1999.90;999.90;;;;;;;7.53;63.43;99061.09;15544071;28;20042;-61
2022/04/08 21:06:57;;;;;;;1999.90;999.90;;;;;;;7.57;63.00;99050.88;15538773;28;20453;-61
2022/04/08 21:14:29;;;;;;;;;;;;;;;7.54;62.89;99065.47;15561846;28;20041;-58
2022/04/08 21:22:03;;;;;;;1999.90;999.90;;;;;;;7.44;63.36;99057.63;15558779;23;20254;-58
2022/04/08 21:29:35;;;;;;;1999.90;999.90;;;;;;;7.26;63.74;99053.53;15512535;28;20066;-57
2022/04/08 21:37:09;;;;;;;1999.90;999.90;;;;;;;7.08;64.12;99034.38;15514301;28;20400;-59
2022/04/08 21:44:41;;;;;;;1999.90;999.90;;;;;;;6.97;64.50;99032.44;15520875;28;20043;-60
2022/04/08 21:52:15;;;;;;;1999.90;999.90;;;;;;;6.88;64.41;99036.19;15491565;28;20054;-58
2022/04/08 21:59:49;;;;;;;1999.90;999.90;;;;;;;6.87;63.60;99045.63;15518017;28;20472;-57
2022/04/08 22:07:22;;;;;;;1999.90;999.90;;;;;;;6.75;63.84;99044.84;15537363;28;20042;-53
2022/04/08 22:14:56;;;;;;;1999.90;999.90;;;;;;;6.66;63.46;99053.28;15514351;28;20071;-54
2022/04/08 22:22:29;;;;;;;;;;;;;;;6.76;63.03;99055.56;15552607;28;20045;-57
2022/04/08 22:30:01;;;;;;;1999.90;999.90;;;;;;;6.55;63.97;99065.97;15513616;28;19991;-58
2022/04/08 22:37:35;;;;;;;1999.90;999.90;;;;;;;6.57;64.02;99058.16;15553018;28;20046;-59
2022/04/08 22:45:11;;;;;;;1999.90;999.90;;;;;;;6.48;65.17;99063.00;15552545;28;20117;-55
2022/04/08 22:52:44;;;;;;;1999.90;999.90;;;;;;;6.47;64.83;99069.69;15534198;28;20050;-58
2022/04/08 23:00:18;;;;;;;1999.90;999.90;;;;;;;6.43;64.77;99077.06;15520596;28;20140;-54
2022/04/08 23:07:52;;;;;;;1999.90;999.90;;;;;;;6.42;64.90;99086.53;15475973;28;20149;-57
2022/04/08 23:15:24;;;;;;;1999.90;999.90;;;;;;;6.29;65.40;99080.16;15497835;28;20054;-56
2022/04/08 23:22:58;;;;;;;1999.90;999.90;;;;;;;6.33;65.23;99092.16;15546245;28;20414;-55
2022/04/08 23:30:30;;;;;;;1999.90;999.90;;;;;;;6.27;65.56;99097.13;15502134;28;20046;-57
2022/04/08 23:38:03;;;;;;;1999.90;999.90;;;;;;;6.29;65.70;99102.31;15530630;28;20042;-59
2022/04/08 23:45:36;;;;;;;1999.90;999.90;;;;;;;6.37;64.81;99106.97;15530475;28;20121;-55
2022/04/08 23:53:09;;;;;;;1999.90;999.90;;;;;;;6.29;66.01;99113.41;15491870;28;20459;-54
